createdAt,value
2024-04-09T00:01:22.038Z,1.88
2024-04-09T00:03:49.366Z,2.10
2024-04-09T00:06:16.675Z,2.33
2024-04-09T00:08:46.281Z,1.80
2024-04-09T00:11:23.592Z,2.35
2024-04-09T00:13:52.584Z,2.22
2024-04-09T00:16:29.775Z,2.20
2024-04-09T00:18:58.100Z,2.10
2024-04-09T00:21:25.638Z,2.10
2024-04-09T00:23:52.711Z,2.20
2024-04-09T00:26:19.586Z,2.20
2024-04-09T00:28:46.474Z,2.20
2024-04-09T00:31:14.622Z,2.33
2024-04-09T00:33:42.016Z,2.33
2024-04-09T00:36:13.757Z,2.13
2024-04-09T00:38:48.371Z,2.22
2024-04-09T00:41:15.899Z,2.28
2024-04-09T00:43:43.136Z,2.20
2024-04-09T00:46:11.538Z,2.15
2024-04-09T00:48:38.925Z,2.10
2024-04-09T00:51:07.412Z,2.38
2024-04-09T00:53:34.265Z,2.60
2024-04-09T00:56:02.683Z,2.33
2024-04-09T00:58:30.355Z,2.20
2024-04-09T01:00:58.166Z,2.20
2024-04-09T01:03:25.410Z,2.10
2024-04-09T01:05:53.963Z,2.20
2024-04-09T01:08:20.902Z,2.40
2024-04-09T01:10:47.764Z,2.50
2024-04-09T01:13:14.720Z,2.20
2024-04-09T01:15:41.644Z,2.40
2024-04-09T01:18:09.664Z,2.13
2024-04-09T01:20:36.537Z,2.63
2024-04-09T01:23:03.493Z,2.78
2024-04-09T01:25:30.317Z,2.55
2024-04-09T01:27:57.227Z,2.42
2024-04-09T01:30:25.128Z,2.75
2024-04-09T01:32:53.350Z,2.83
2024-04-09T01:35:20.466Z,3.08
2024-04-09T01:37:47.910Z,3.50
2024-04-09T01:40:15.035Z,3.08
2024-04-09T01:42:43.116Z,3.00
2024-04-09T01:45:10.158Z,2.90
2024-04-09T01:47:37.984Z,2.78
2024-04-09T01:50:05.949Z,2.90
2024-04-09T01:52:33.250Z,2.63
2024-04-09T01:55:00.272Z,2.78
2024-04-09T01:57:33.312Z,2.63
2024-04-09T02:00:00.780Z,2.70
2024-04-09T02:02:27.917Z,2.70
2024-04-09T02:04:55.434Z,2.80
2024-04-09T02:07:22.400Z,2.60
2024-04-09T02:09:51.460Z,2.30
2024-04-09T02:12:18.450Z,2.60
2024-04-09T02:14:45.376Z,2.40
2024-04-09T02:17:12.765Z,2.35
2024-04-09T02:19:39.664Z,2.20
2024-04-09T02:22:06.572Z,2.50
2024-04-09T02:24:33.545Z,2.70
2024-04-09T02:27:00.653Z,2.58
2024-04-09T02:29:27.684Z,2.80
2024-04-09T02:31:54.626Z,2.88
2024-04-09T02:34:25.874Z,2.60
2024-04-09T02:36:53.134Z,2.72
2024-04-09T02:39:20.056Z,2.80
2024-04-09T02:41:46.984Z,2.38
2024-04-09T02:44:13.863Z,2.80
2024-04-09T02:46:40.767Z,2.57
2024-04-09T02:49:08.113Z,2.75
2024-04-09T02:51:37.223Z,2.60
2024-04-09T02:54:04.333Z,2.63
2024-04-09T02:56:31.737Z,2.80
2024-04-09T02:58:58.729Z,2.90
2024-04-09T03:01:25.655Z,2.72
2024-04-09T03:03:52.663Z,2.53
2024-04-09T03:06:19.663Z,2.80
2024-04-09T03:08:46.607Z,2.90
2024-04-09T03:11:17.856Z,2.70
2024-04-09T03:13:53.005Z,2.90
2024-04-09T03:16:23.462Z,2.50
2024-04-09T03:18:51.861Z,2.72
2024-04-09T03:21:18.798Z,3.08
2024-04-09T03:23:46.003Z,2.60
2024-04-09T03:26:13.478Z,2.85
2024-04-09T03:28:40.586Z,2.80
2024-04-09T03:31:07.539Z,2.70
2024-04-09T03:33:34.790Z,2.80
2024-04-09T03:36:02.843Z,2.80
2024-04-09T03:38:29.786Z,2.70
2024-04-09T03:41:00.783Z,2.50
2024-04-09T03:43:27.796Z,2.50
2024-04-09T03:46:14.112Z,2.67
2024-04-09T03:48:45.837Z,2.50
2024-04-09T03:51:17.150Z,2.40
2024-04-09T03:53:46.770Z,2.33
2024-04-09T03:56:14.356Z,2.75
2024-04-09T03:58:45.695Z,2.30
2024-04-09T04:01:12.768Z,1.93
2024-04-09T04:03:41.500Z,2.60
2024-04-09T04:06:08.525Z,2.35
2024-04-09T04:08:39.947Z,2.30
2024-04-09T04:11:07.964Z,2.50
2024-04-09T04:13:35.677Z,1.93
2024-04-09T04:16:08.470Z,2.60
2024-04-09T04:18:39.157Z,2.30
2024-04-09T04:21:16.662Z,2.20
2024-04-09T04:23:43.811Z,2.10
2024-04-09T04:26:18.457Z,2.07
2024-04-09T04:28:45.823Z,6.80
2024-04-09T04:31:40.479Z,2.15
2024-04-09T04:34:07.498Z,2.88
2024-04-09T04:36:34.478Z,2.58
2024-04-09T04:39:01.407Z,2.60
2024-04-09T04:41:28.294Z,2.40
2024-04-09T04:43:57.436Z,2.40
2024-04-09T04:46:24.499Z,2.20
2024-04-09T04:48:51.516Z,2.60
2024-04-09T04:51:18.614Z,2.37
2024-04-09T04:53:45.491Z,2.28
2024-04-09T04:56:12.304Z,2.60
2024-04-09T04:58:39.135Z,2.65
2024-04-09T05:01:06.233Z,2.25
2024-04-09T05:03:33.216Z,2.53
2024-04-09T05:06:10.409Z,2.80
2024-04-09T05:08:37.444Z,2.53
2024-04-09T05:11:10.477Z,2.63
2024-04-09T05:13:37.466Z,2.70
2024-04-09T05:16:04.760Z,2.43
2024-04-09T05:18:31.698Z,2.60
2024-04-09T05:20:59.200Z,2.45
2024-04-09T05:23:26.049Z,2.22
2024-04-09T05:25:52.922Z,2.53
2024-04-09T05:28:19.752Z,2.57
2024-04-09T05:30:46.665Z,2.75
2024-04-09T05:33:13.701Z,2.70
2024-04-09T05:35:40.594Z,2.67
2024-04-09T05:38:07.476Z,3.00
2024-04-09T05:40:35.768Z,3.00
2024-04-09T05:43:02.643Z,3.20
2024-04-09T05:45:29.508Z,3.53
2024-04-09T05:47:56.869Z,3.53
2024-04-09T05:50:23.744Z,3.97
2024-04-09T05:52:50.607Z,4.17
2024-04-09T05:55:17.636Z,4.00
2024-04-09T05:57:44.574Z,3.97
2024-04-09T06:00:13.138Z,4.18
2024-04-09T06:02:44.883Z,4.13
2024-04-09T06:05:11.810Z,4.47
2024-04-09T06:07:38.647Z,3.97
2024-04-09T06:10:05.836Z,5.57
2024-04-09T06:12:32.919Z,4.60
2024-04-09T06:14:59.869Z,4.80
2024-04-09T06:17:26.808Z,6.70
2024-04-09T06:19:58.483Z,5.78
2024-04-09T06:22:25.591Z,6.07
2024-04-09T06:24:52.482Z,6.85
2024-04-09T06:27:19.393Z,6.70
2024-04-09T06:29:46.427Z,6.53
2024-04-09T06:32:13.412Z,6.03
2024-04-09T06:34:40.421Z,6.90
2024-04-09T06:37:07.971Z,7.57
2024-04-09T06:39:34.996Z,6.55
2024-04-09T06:42:04.248Z,8.68
2024-04-09T06:44:32.129Z,9.77
2024-04-09T06:46:59.590Z,8.80
2024-04-09T06:49:26.710Z,10.02
2024-04-09T06:51:53.621Z,10.05
2024-04-09T06:54:20.564Z,10.82
2024-04-09T06:56:47.462Z,9.48
2024-04-09T06:59:14.494Z,7.30
2024-04-09T07:01:41.522Z,6.03
2024-04-09T07:04:08.560Z,5.53
2024-04-09T07:06:35.690Z,7.18
2024-04-09T07:09:05.006Z,9.95
2024-04-09T07:11:31.983Z,8.70
2024-04-09T07:13:58.898Z,9.65
2024-04-09T07:16:25.891Z,9.03
2024-04-09T07:18:52.888Z,8.83
2024-04-09T07:21:20.836Z,7.45
2024-04-09T07:23:48.851Z,7.45
2024-04-09T07:26:16.068Z,8.05
2024-04-09T07:28:43.025Z,8.23
2024-04-09T07:31:11.866Z,9.90
2024-04-09T07:33:39.388Z,10.70
2024-04-09T07:36:06.787Z,9.70
2024-04-09T07:38:33.845Z,10.63
2024-04-09T07:41:01.195Z,11.13
2024-04-09T07:43:34.104Z,9.23
2024-04-09T07:46:03.276Z,9.55
2024-04-09T07:48:30.494Z,10.55
2024-04-09T07:50:57.695Z,10.60
2024-04-09T07:53:24.731Z,9.30
2024-04-09T07:55:52.235Z,7.75
2024-04-09T07:58:19.173Z,6.90
2024-04-09T08:00:46.315Z,8.47
2024-04-09T08:03:13.567Z,7.20
2024-04-09T08:05:41.070Z,7.82
2024-04-09T08:08:09.353Z,8.48
2024-04-09T08:10:37.034Z,9.18
2024-04-09T08:13:04.291Z,8.73
2024-04-09T08:15:31.385Z,9.75
2024-04-09T08:17:58.490Z,9.70
2024-04-09T08:20:25.915Z,10.20
2024-04-09T08:22:53.548Z,9.38
2024-04-09T08:25:20.946Z,9.53
2024-04-09T08:27:48.064Z,9.47
2024-04-09T08:30:16.033Z,9.48
2024-04-09T08:32:43.165Z,7.07
2024-04-09T08:35:10.854Z,9.38
2024-04-09T08:37:37.742Z,8.70
2024-04-09T08:40:05.393Z,9.23
2024-04-09T08:42:32.579Z,8.20
2024-04-09T08:44:59.875Z,9.18
2024-04-09T08:47:27.133Z,9.15
2024-04-09T08:50:01.627Z,8.03
2024-04-09T08:52:30.577Z,9.20
2024-04-09T08:54:57.526Z,8.30
2024-04-09T08:57:24.562Z,7.05
2024-04-09T08:59:51.654Z,7.35
2024-04-09T09:02:18.575Z,7.95
2024-04-09T09:04:46.093Z,7.47
2024-04-09T09:07:21.050Z,7.25
2024-04-09T09:09:48.564Z,5.72
2024-04-09T09:12:15.797Z,5.95
2024-04-09T09:14:55.880Z,6.57
2024-04-09T09:17:23.005Z,6.70
2024-04-09T09:20:02.075Z,6.13
2024-04-09T09:22:31.183Z,6.15
2024-04-09T09:25:01.193Z,5.30
2024-04-09T09:27:28.237Z,5.68
2024-04-09T09:29:55.838Z,5.70
2024-04-09T09:32:25.730Z,4.53
2024-04-09T09:34:55.268Z,4.10
2024-04-09T09:37:22.157Z,3.88
2024-04-09T09:39:49.116Z,4.67
2024-04-09T09:42:16.303Z,3.60
2024-04-09T09:44:43.796Z,3.05
2024-04-09T09:47:10.748Z,2.83
2024-04-09T09:49:37.732Z,3.47
2024-04-09T09:52:06.212Z,3.17
2024-04-09T09:54:33.185Z,3.30
2024-04-09T09:57:02.208Z,3.20
2024-04-09T09:59:36.866Z,3.40
2024-04-09T10:02:04.116Z,3.13
2024-04-09T10:04:31.247Z,3.10
2024-04-09T10:07:04.213Z,2.80
2024-04-09T10:09:51.108Z,3.00
2024-04-09T10:12:22.048Z,2.90
2024-04-09T10:15:17.763Z,3.33
2024-04-09T10:17:53.141Z,3.25
2024-04-09T10:20:21.706Z,3.13
2024-04-09T10:22:48.855Z,3.60
2024-04-09T10:25:22.846Z,3.00
2024-04-09T10:28:09.669Z,2.80
2024-04-09T10:30:41.277Z,3.10
2024-04-09T10:33:08.759Z,3.20
2024-04-09T10:35:36.113Z,2.70
2024-04-09T10:38:06.579Z,3.28
2024-04-09T10:40:37.125Z,3.10
2024-04-09T10:43:07.499Z,3.20
2024-04-09T10:45:37.404Z,2.90
2024-04-09T10:48:09.046Z,2.85
2024-04-09T10:50:35.968Z,3.75
2024-04-09T10:53:04.125Z,3.28
2024-04-09T10:55:31.117Z,2.80
2024-04-09T10:57:58.236Z,3.05
2024-04-09T11:00:27.526Z,2.70
2024-04-09T11:02:54.682Z,2.90
2024-04-09T11:05:21.622Z,2.90
2024-04-09T11:07:49.357Z,2.92
2024-04-09T11:10:17.891Z,2.42
2024-04-09T11:12:49.345Z,3.03
2024-04-09T11:15:16.679Z,2.95
2024-04-09T11:17:43.864Z,2.72
2024-04-09T11:20:19.833Z,2.63
2024-04-09T11:22:52.765Z,3.47
2024-04-09T11:25:26.232Z,2.80
2024-04-09T11:27:53.792Z,2.53
2024-04-09T11:30:25.565Z,2.65
2024-04-09T11:32:53.361Z,2.67
2024-04-09T11:35:21.831Z,2.80
2024-04-09T11:37:59.125Z,2.90
2024-04-09T11:40:32.823Z,2.92
2024-04-09T11:43:00.122Z,2.78
2024-04-09T11:45:29.111Z,2.60
2024-04-09T11:47:59.016Z,2.80
2024-04-09T11:50:26.397Z,2.40
2024-04-09T11:52:53.432Z,2.70
2024-04-09T11:55:22.572Z,3.03
2024-04-09T11:57:51.084Z,2.70
2024-04-09T12:00:17.969Z,2.88
2024-04-09T12:02:45.526Z,2.90
2024-04-09T12:05:13.649Z,2.75
2024-04-09T12:07:41.447Z,3.20
2024-04-09T12:10:08.621Z,2.60
2024-04-09T12:12:35.739Z,3.00
2024-04-09T12:15:02.810Z,3.05
2024-04-09T12:17:29.782Z,3.03
2024-04-09T12:19:56.685Z,2.97
2024-04-09T12:22:25.517Z,2.97
2024-04-09T12:24:53.912Z,3.35
2024-04-09T12:27:20.819Z,3.28
2024-04-09T12:29:47.747Z,3.20
2024-04-09T12:32:14.975Z,3.10
2024-04-09T12:34:42.478Z,11.30
2024-04-09T12:37:09.434Z,3.80
2024-04-09T12:39:36.420Z,3.60
2024-04-09T12:42:03.378Z,3.83
2024-04-09T12:44:30.725Z,3.40
2024-04-09T12:46:57.734Z,2.90
2024-04-09T12:49:34.754Z,14.05
2024-04-09T12:52:08.655Z,3.50
2024-04-09T12:54:35.555Z,3.40
2024-04-09T12:57:02.616Z,4.30
2024-04-09T12:59:44.598Z,3.80
2024-04-09T13:02:20.578Z,2.88
2024-04-09T13:04:47.640Z,2.90
2024-04-09T13:07:14.606Z,3.55
2024-04-09T13:09:41.660Z,3.10
2024-04-09T13:12:08.686Z,2.80
2024-04-09T13:14:37.544Z,2.87
2024-04-09T13:17:08.686Z,3.20
2024-04-09T13:19:36.767Z,2.60
2024-04-09T13:22:04.862Z,2.83
2024-04-09T13:24:31.842Z,2.65
2024-04-09T13:26:59.256Z,2.60
2024-04-09T13:29:26.705Z,3.13
2024-04-09T13:31:53.830Z,2.83
2024-04-09T13:34:23.372Z,3.38
2024-04-09T13:36:51.195Z,3.00
2024-04-09T13:39:18.131Z,3.37
2024-04-09T13:41:45.162Z,3.05
2024-04-09T13:44:13.067Z,3.20
2024-04-09T13:46:40.130Z,3.20
2024-04-09T13:49:07.259Z,2.88
2024-04-09T13:51:34.296Z,2.67
2024-04-09T13:54:01.355Z,3.05
2024-04-09T13:56:28.306Z,3.42
2024-04-09T13:58:55.343Z,3.00
2024-04-09T14:01:22.585Z,2.83
2024-04-09T14:03:50.488Z,2.67
2024-04-09T14:06:19.726Z,2.95
2024-04-09T14:08:46.630Z,3.10
2024-04-09T14:11:13.756Z,2.70
2024-04-09T14:13:40.832Z,2.70
2024-04-09T14:16:07.751Z,2.42
2024-04-09T14:18:38.574Z,2.50
2024-04-09T14:21:07.786Z,2.65
2024-04-09T14:23:37.246Z,2.73
2024-04-09T14:26:08.657Z,2.70
2024-04-09T14:28:37.925Z,2.75
2024-04-09T14:31:05.150Z,2.60
2024-04-09T14:33:32.524Z,2.80
2024-04-09T14:36:02.563Z,2.47
2024-04-09T14:38:29.590Z,2.40
2024-04-09T14:40:57.354Z,2.95
2024-04-09T14:43:24.232Z,2.40
2024-04-09T14:45:51.208Z,2.70
2024-04-09T14:48:18.440Z,2.45
2024-04-09T14:50:45.549Z,2.40
2024-04-09T14:53:13.852Z,2.80
2024-04-09T14:55:41.210Z,2.55
2024-04-09T14:58:08.533Z,2.40
2024-04-09T15:00:42.340Z,2.30
2024-04-09T15:03:09.926Z,2.42
2024-04-09T15:05:37.529Z,2.40
2024-04-09T15:08:05.363Z,2.63
2024-04-09T15:10:32.963Z,2.38
2024-04-09T15:13:02.167Z,2.58
2024-04-09T15:15:29.101Z,2.60
2024-04-09T15:17:56.178Z,2.78
2024-04-09T15:20:23.256Z,3.03
2024-04-09T15:22:51.017Z,2.60
2024-04-09T15:25:20.550Z,2.43
2024-04-09T15:27:47.896Z,2.85
2024-04-09T15:30:20.061Z,2.50
2024-04-09T15:32:50.558Z,2.50
2024-04-09T15:35:18.006Z,2.60
2024-04-09T15:37:45.032Z,2.50
2024-04-09T15:40:16.170Z,2.70
2024-04-09T15:42:45.297Z,2.20
2024-04-09T15:45:15.630Z,2.50
2024-04-09T15:47:43.140Z,2.70
2024-04-09T15:50:10.140Z,2.70
2024-04-09T15:52:37.508Z,2.50
2024-04-09T15:55:08.058Z,2.80
2024-04-09T15:57:34.938Z,2.60
2024-04-09T16:00:12.818Z,2.77
2024-04-09T16:02:40.336Z,2.70
2024-04-09T16:05:09.091Z,2.67
2024-04-09T16:07:36.469Z,3.00
2024-04-09T16:10:04.015Z,3.10
2024-04-09T16:12:31.627Z,3.03
2024-04-09T16:15:00.138Z,2.70
2024-04-09T16:17:27.190Z,2.93
2024-04-09T16:19:54.138Z,2.85
2024-04-09T16:22:21.184Z,3.08
2024-04-09T16:24:52.147Z,2.63
2024-04-09T16:27:19.267Z,2.90
2024-04-09T16:29:46.452Z,2.80
2024-04-09T16:32:17.264Z,2.80
2024-04-09T16:34:44.521Z,2.60
2024-04-09T16:37:13.454Z,2.70
2024-04-09T16:39:40.779Z,2.78
2024-04-09T16:42:08.121Z,2.60
2024-04-09T16:44:35.775Z,2.40
2024-04-09T16:47:03.054Z,2.67
2024-04-09T16:49:30.121Z,2.50
2024-04-09T16:51:58.021Z,2.45
2024-04-09T16:54:25.656Z,2.58
2024-04-09T16:56:55.791Z,2.38
2024-04-09T16:59:24.015Z,2.23
2024-04-09T17:01:51.628Z,2.33
2024-04-09T17:04:19.191Z,2.70
2024-04-09T17:06:48.168Z,2.38
2024-04-09T17:09:15.853Z,2.55
2024-04-09T17:11:43.312Z,2.60
2024-04-09T17:14:14.254Z,2.57
2024-04-09T17:16:41.444Z,2.67
2024-04-09T17:19:08.703Z,2.35
2024-04-09T17:21:36.213Z,2.58
2024-04-09T17:24:05.345Z,2.70
2024-04-09T17:26:32.830Z,2.30
2024-04-09T17:29:00.402Z,2.37
2024-04-09T17:31:29.209Z,2.90
2024-04-09T17:33:57.161Z,2.60
2024-04-09T17:36:25.042Z,3.20
2024-04-09T17:38:52.585Z,2.65
2024-04-09T17:41:20.531Z,3.35
2024-04-09T17:43:48.731Z,3.10
2024-04-09T17:46:15.944Z,2.90
2024-04-09T17:48:44.099Z,3.38
2024-04-09T17:51:12.403Z,3.00
2024-04-09T17:53:40.936Z,2.80
2024-04-09T17:56:08.213Z,3.53
2024-04-09T17:58:36.322Z,7.33
2024-04-09T18:01:13.223Z,11.90
2024-04-09T18:03:47.849Z,7.28
2024-04-09T18:06:18.568Z,3.65
2024-04-09T18:08:46.769Z,3.45
2024-04-09T18:11:16.942Z,2.77
2024-04-09T18:13:44.981Z,2.75
2024-04-09T18:16:13.157Z,2.60
2024-04-09T18:18:43.696Z,2.50
2024-04-09T18:21:11.117Z,2.25
2024-04-09T18:23:41.152Z,2.40
2024-04-09T18:26:10.510Z,2.75
2024-04-09T18:28:38.542Z,2.67
2024-04-09T18:31:06.736Z,2.70
2024-04-09T18:33:36.615Z,2.75
2024-04-09T18:36:06.891Z,2.57
2024-04-09T18:38:35.264Z,2.53
2024-04-09T18:41:08.060Z,2.40
2024-04-09T18:43:36.191Z,2.83
2024-04-09T18:46:04.194Z,2.60
2024-04-09T18:48:33.564Z,2.33
2024-04-09T18:51:06.817Z,2.42
2024-04-09T18:53:38.726Z,3.17
2024-04-09T18:56:09.760Z,2.60
2024-04-09T18:58:39.081Z,2.70
2024-04-09T19:01:06.570Z,2.40
2024-04-09T19:03:35.045Z,2.90
2024-04-09T19:06:05.791Z,2.80
2024-04-09T19:08:37.847Z,3.45
2024-04-09T19:11:12.610Z,2.90
2024-04-09T19:13:46.161Z,2.70
2024-04-09T19:16:19.134Z,2.60
2024-04-09T19:18:50.275Z,2.80
2024-04-09T19:21:20.320Z,2.53
2024-04-09T19:23:48.927Z,2.72
2024-04-09T19:26:18.810Z,2.60
2024-04-09T19:28:52.238Z,2.70
2024-04-09T19:31:23.458Z,2.72
2024-04-09T19:33:51.723Z,2.75
2024-04-09T19:36:21.526Z,2.85
2024-04-09T19:38:54.278Z,2.60
2024-04-09T19:41:28.016Z,3.17
2024-04-09T19:44:09.340Z,3.15
2024-04-09T19:46:43.035Z,2.65
2024-04-09T19:49:13.273Z,3.08
2024-04-09T19:51:42.238Z,3.00
2024-04-09T19:54:12.506Z,2.60
2024-04-09T19:56:42.136Z,3.30
2024-04-09T19:59:12.069Z,3.83
2024-04-09T20:01:42.085Z,4.35
2024-04-09T20:04:11.357Z,6.40
2024-04-09T20:06:42.665Z,9.05
2024-04-09T20:09:14.038Z,5.32
2024-04-09T20:11:42.759Z,4.60
2024-04-09T20:14:11.296Z,4.60
2024-04-09T20:16:40.114Z,4.37
2024-04-09T20:19:08.765Z,3.97
2024-04-09T20:21:38.279Z,4.13
2024-04-09T20:24:06.958Z,3.78
2024-04-09T20:26:36.901Z,3.83
2024-04-09T20:29:12.937Z,3.73
2024-04-09T20:31:43.064Z,4.00
2024-04-09T20:34:11.509Z,3.95
2024-04-09T20:36:39.980Z,3.88
2024-04-09T20:39:09.549Z,4.30
2024-04-09T20:41:38.403Z,3.90
2024-04-09T20:44:09.312Z,4.40
2024-04-09T20:46:37.768Z,3.92
2024-04-09T20:49:06.444Z,3.58
2024-04-09T20:51:36.286Z,4.00
2024-04-09T20:54:05.127Z,3.67
2024-04-09T20:56:33.968Z,4.13
2024-04-09T20:59:02.449Z,3.42
2024-04-09T21:01:29.913Z,3.97
2024-04-09T21:03:57.839Z,3.80
2024-04-09T21:06:25.161Z,3.40
2024-04-09T21:08:53.380Z,3.75
2024-04-09T21:11:21.771Z,3.80
2024-04-09T21:13:49.393Z,3.78
2024-04-09T21:16:17.838Z,4.18
2024-04-09T21:18:47.210Z,4.00
2024-04-09T21:21:14.441Z,4.20
2024-04-09T21:23:41.683Z,4.15
2024-04-09T21:26:08.930Z,4.10
2024-04-09T21:28:35.854Z,4.47
2024-04-09T21:31:02.711Z,3.57
2024-04-09T21:33:30.904Z,3.80
2024-04-09T21:35:57.979Z,4.07
2024-04-09T21:38:25.029Z,3.88
2024-04-09T21:40:51.957Z,3.88
2024-04-09T21:43:18.827Z,3.33
2024-04-09T21:45:47.065Z,3.35
2024-04-09T21:48:14.178Z,3.35
2024-04-09T21:50:41.315Z,3.15
2024-04-09T21:53:08.197Z,2.92
2024-04-09T21:55:35.075Z,3.00
2024-04-09T21:58:01.911Z,2.92
2024-04-09T22:00:35.275Z,2.80
2024-04-09T22:03:02.354Z,2.92
2024-04-09T22:05:29.306Z,3.10
2024-04-09T22:07:56.324Z,2.80
2024-04-09T22:10:23.193Z,3.00
2024-04-09T22:12:57.706Z,3.40
2024-04-09T22:15:24.823Z,3.45
2024-04-09T22:17:51.868Z,3.05
2024-04-09T22:20:22.615Z,3.20
2024-04-09T22:22:49.727Z,3.45
2024-04-09T22:25:16.651Z,4.15
2024-04-09T22:27:47.264Z,3.63
2024-04-09T22:30:14.146Z,3.63
2024-04-09T22:32:43.452Z,3.40
2024-04-09T22:35:10.560Z,3.67
2024-04-09T22:37:37.504Z,4.00
2024-04-09T22:40:05.958Z,3.50
2024-04-09T22:42:32.978Z,3.53
2024-04-09T22:44:59.807Z,3.93
2024-04-09T22:47:26.853Z,3.40
2024-04-09T22:49:53.836Z,3.65
2024-04-09T22:52:20.695Z,3.50
2024-04-09T22:54:47.630Z,3.65
2024-04-09T22:57:14.477Z,3.30
2024-04-09T22:59:41.346Z,3.40
2024-04-09T23:02:08.343Z,3.95
2024-04-09T23:04:35.479Z,3.42
2024-04-09T23:07:02.339Z,3.53
2024-04-09T23:09:29.189Z,3.63
2024-04-09T23:11:56.261Z,3.80
2024-04-09T23:14:23.173Z,3.35
2024-04-09T23:16:50.491Z,3.33
2024-04-09T23:19:18.315Z,3.80
2024-04-09T23:21:51.311Z,3.30
2024-04-09T23:24:18.210Z,3.63
2024-04-09T23:26:45.040Z,3.70
2024-04-09T23:29:12.075Z,3.25
2024-04-09T23:31:38.973Z,3.45
2024-04-09T23:34:05.947Z,3.33
2024-04-09T23:36:32.908Z,2.90
2024-04-09T23:38:59.743Z,3.10
2024-04-09T23:41:26.889Z,3.40
2024-04-09T23:43:54.542Z,3.30
2024-04-09T23:46:21.377Z,3.10
2024-04-09T23:48:49.992Z,3.22
2024-04-09T23:51:17.173Z,3.15
2024-04-09T23:53:44.019Z,3.10
2024-04-09T23:56:10.978Z,3.90
2024-04-09T23:58:37.913Z,3.03
